Presque Isle — WDH7560 — position and weather

sailwx.info

Track history (hours):
 
Tides and Currents Weather Stations Pressure Air Temp Water Temp Dewpoint Dewpoint Depression Visibility Wind Speed Wind Dir Waves Ship Positions

Presque Isle

Owner: Great Lakes Fleet, Inc., Homewood, IL. More information available from US FCC via Universal Licensing System and Coast Guard Vessel Documentation Center.

Last reported at 2018-Jan-12 14:00 UTC. Time now 2018-Feb-23 15:57 UTC.
Position N 43°18' W 083°06'.
Warning: this ship's position is 42 days out of date.

Length 305 m; draft 6.9 m.

Type: Cargo ship. MMSI: 367057570.

Wind from 340 at 24 knots

Barometer 1008.4 mb
Air temperature -0.0 ° C
Visibility: greater than 1.1 NM

Date/timePositionNaut miles runAvg speedWind from/ knotsBaromVisibWave heightAir tempDewpointWater temp
2018-Jan-12 14:00N 43°18' W 083°06'66 6.0 340 / 241008.4 1.1 -0.0
2018-Jan-12 03:00N 42°12' W 083°06'73 6.1 180 / 241006.4 0.0 7.2
2018-Jan-11 15:00N 43°18' W 082°24'0 0.0 180 / 261010.8 5.4 4.4
2018-Jan-11 12:00N 43°18' W 082°24'0 0.0 170 / 221011.510.8 3.8
2018-Jan-11 10:00N 43°18' W 082°24'24 3.4 170 / 201011.510.8 3.3
2018-Jan-11 03:00N 43°42' W 082°24'24 8.0 180 / 241010.8 0.5 3.3
2018-Jan-11 00:00N 43°18' W 082°24'0 0.0 190 / 221009.1 0.1 2.2
2018-Jan-10 15:00N 43°18' W 082°24'73 9.1 160 / 171018.6 2.2 -1.6
2018-Jan-10 07:00N 44°30' W 082°42'25 8.5 190 / 231022.610.8 -1.1
2018-Jan-10 04:00N 44°54' W 082°54'208 9.9 1023.7 2.2 -1.6
2018-Jan-09 07:00N 47°18' W 086°30'5213.0 320 / 201016.510.8 -3.8
2018-Jan-09 03:00N 47°36' W 087°42'5313.2 310 / 271013.8 5.4 -5.5
2018-Jan-08 23:00N 47°30' W 089°00'3115.4 300 / 241011.8 -3.3
2018-Jan-08 21:00N 47°18' W 089°42'8 8.1 310 / 251009.827.0 -1.6
2018-Jan-08 20:00N 47°18' W 089°54'5811.7 300 / 261008.810.8 -1.6
2018-Jan-08 15:00N 47°06' W 091°18'1621.4 270 / 241008.1 5.4 -1.6
2018-Jan-08 14:15N 47°00' W 091°40'1 2.8
2018-Jan-08 14:00N 47°01' W 091°40'0 0.1
2018-Jan-08 11:46N 47°01' W 091°40'0 0.0
2018-Jan-08 11:04N 47°01' W 091°40'0 0.1
2018-Jan-08 11:00N 47°01' W 091°40'0 0.0
2018-Jan-08 10:30N 47°01' W 091°40'0 0.0
2018-Jan-08 10:00N 47°01' W 091°40'0 0.0
2018-Jan-08 09:30N 47°01' W 091°40'0 0.0
2018-Jan-08 09:00N 47°01' W 091°40'0 0.0
2018-Jan-08 08:30N 47°01' W 091°40'0 0.0
2018-Jan-08 08:00N 47°01' W 091°40'0 0.0
2018-Jan-08 07:29N 47°01' W 091°40'0 0.0
2018-Jan-08 07:00N 47°01' W 091°40'0 0.0
2018-Jan-08 01:32N 47°01' W 091°40'0 0.0
2018-Jan-08 01:18N 47°01' W 091°40'0 0.6
2018-Jan-08 01:00N 47°01' W 091°40'3 6.1
2018-Jan-08 00:26N 46°58' W 091°43'512.8
2018-Jan-08 00:00N 46°53' W 091°47'165.7
2018-Jan-08 00:00N 46°54' W 091°48'713.9 240 / 181006.4 5.4 -2.2
2018-Jan-07 23:30N 46°48' W 091°53'3 5.4
2018-Jan-07 23:00N 46°46' W 091°56'0 0.1
2018-Jan-07 22:30N 46°46' W 091°56'0 0.0
2018-Jan-07 22:00N 46°46' W 091°56'0 0.0
2018-Jan-07 21:30N 46°46' W 091°56'0 0.0
2018-Jan-07 21:00N 46°46' W 091°56'0 0.1
2018-Jan-07 20:30N 46°46' W 091°56'0 0.0
2018-Jan-07 20:00N 46°46' W 091°56'0 0.0
2018-Jan-07 19:30N 46°46' W 091°56'0 0.0
2018-Jan-07 19:00N 46°46' W 091°56'0 0.1
2018-Jan-07 18:30N 46°46' W 091°56'0 0.0
2018-Jan-07 18:00N 46°46' W 091°56'0 0.0
2018-Jan-07 17:30N 46°46' W 091°56'0 0.0
2018-Jan-07 17:00N 46°46' W 091°56'0 0.1
2018-Jan-07 16:30N 46°46' W 091°56'0 0.0
2018-Jan-07 16:00N 46°46' W 091°56'0 0.0
2018-Jan-07 15:30N 46°46' W 091°56'0 0.0
2018-Jan-07 15:00N 46°46' W 091°56'0 0.0
2018-Jan-07 14:30N 46°46' W 091°56'0 0.0
2018-Jan-07 14:00N 46°46' W 091°56'0 0.0
2018-Jan-07 13:30N 46°46' W 091°56'0 0.0
2018-Jan-07 13:00N 46°46' W 091°56'0 0.0
2018-Jan-07 12:29N 46°46' W 091°56'0 0.0
2018-Jan-07 12:00N 46°46' W 091°56'0 0.0
2018-Jan-07 11:30N 46°46' W 091°56'0 0.0
2018-Jan-07 11:00N 46°46' W 091°56'0 0.0
2018-Jan-07 10:30N 46°46' W 091°56'0 0.0
2018-Jan-07 10:00N 46°46' W 091°56'2227.7
2018-Jan-07 10:00N 46°48' W 091°54'2 4.3 230 / 281008.827.0 -9.4
2018-Jan-07 09:30N 46°46' W 091°56'0 0.0
2018-Jan-07 09:00N 46°46' W 091°56'2157.0
2018-Jan-07 09:00N 46°48' W 091°54'2 4.3 230 / 311010.427.0 -9.4
2018-Jan-07 08:30N 46°46' W 091°56'0 0.0
2018-Jan-07 08:00N 46°46' W 091°56'0 0.0
2018-Jan-07 07:30N 46°46' W 091°56'0 0.0
2018-Jan-07 07:00N 46°46' W 091°56'0 0.0
2018-Jan-07 06:30N 46°46' W 091°56'0 0.0
2018-Jan-07 06:00N 46°46' W 091°56'0 0.0
2018-Jan-07 05:30N 46°46' W 091°56'0 0.1
2018-Jan-07 05:00N 46°46' W 091°56'1 1.9
2018-Jan-07 04:30N 46°47' W 091°55'4 8.7
2018-Jan-07 04:00N 46°48' W 091°48'3 6.2
2018-Jan-07 03:30N 46°49' W 091°44'4 7.4
2018-Jan-07 03:00N 46°50' W 091°39'5 8.4
2018-Jan-07 02:23N 46°51' W 091°32'16 6.8
2018-Jan-07 00:00N 47°00' W 091°12'2010.1 190 / 161022.010.8 -10.5
2018-Jan-06 22:00N 47°12' W 090°48'34 5.6 180 / 151025.310.8 -12.2
2018-Jan-06 16:00N 46°54' W 091°30'416.6 210 / 121032.1 1.1 -16.6
2018-Jan-06 15:46N 46°52' W 091°35'310.5
2018-Jan-06 15:30N 46°51' W 091°38'5 9.9
2018-Jan-06 15:00N 46°48' W 091°44'4 8.9
2018-Jan-06 14:30N 46°47' W 091°51'4 8.0
2018-Jan-06 14:00N 46°47' W 091°56'1 0.9
2018-Jan-06 13:21N 46°46' W 091°56'0 0.1
2018-Jan-06 12:57N 46°46' W 091°56'0 0.1
2018-Jan-06 12:09N 46°46' W 091°56'528.7
2018-Jan-06 12:00N 46°42' W 091°54'553.7 230 / 71034.810.8 -21.6
2018-Jan-06 11:54N 46°46' W 091°56'0 0.0
2018-Jan-06 11:24N 46°46' W 091°56'511.3
2018-Jan-06 11:00N 46°42' W 091°54'5121.8 230 / 71034.810.8 -21.1
2018-Jan-06 10:57N 46°46' W 091°56'0 0.4
2018-Jan-06 10:30N 46°46' W 091°57'0 0.3
2018-Jan-06 09:57N 46°46' W 091°57'0 0.3
2018-Jan-06 09:27N 46°46' W 091°57'0 0.2
2018-Jan-06 08:57N 46°46' W 091°57'0 0.2
2018-Jan-06 08:27N 46°46' W 091°57'0 0.1
2018-Jan-06 07:57N 46°46' W 091°57'0 0.2
2018-Jan-06 07:27N 46°46' W 091°57'0 0.1
2018-Jan-06 07:00N 46°46' W 091°57'0 0.0
2018-Jan-06 06:30N 46°46' W 091°57'0 0.0
2018-Jan-06 06:00N 46°46' W 091°57'0 0.0
2018-Jan-06 05:27N 46°46' W 091°57'0 0.0
2018-Jan-06 04:57N 46°46' W 091°57'0 0.0
2018-Jan-06 04:27N 46°46' W 091°57'0 0.0
2018-Jan-06 04:00N 46°46' W 091°57'4334.4
2018-Jan-06 04:00N 46°42' W 091°54'4 7.8 320 / 10 2.2 -17.2-0.7
2018-Jan-06 03:27N 46°46' W 091°57'0 0.0
2018-Jan-06 03:00N 46°46' W 091°57'0 0.0
2018-Jan-06 02:27N 46°46' W 091°57'0 0.0
2018-Jan-06 02:00N 46°46' W 091°57'0 0.0
2018-Jan-06 01:30N 46°46' W 091°57'0 0.0
2018-Jan-06 01:00N 46°46' W 091°57'0 0.0
2018-Jan-06 00:30N 46°46' W 091°57'0 0.1
2018-Jan-05 23:54N 46°46' W 091°57'0 0.2
2018-Jan-05 23:30N 46°46' W 091°57'0 0.3
2018-Jan-05 23:00N 46°46' W 091°57'0 0.2
2018-Jan-05 22:27N 46°46' W 091°57'0 0.1
2018-Jan-05 21:51N 46°46' W 091°57'0 0.0
2018-Jan-05 21:27N 46°46' W 091°57'0 0.1
2018-Jan-05 20:57N 46°46' W 091°57'0 0.2
2018-Jan-05 20:27N 46°46' W 091°57'0 0.2
2018-Jan-05 19:57N 46°46' W 091°58'0 0.1
2018-Jan-05 19:27N 46°46' W 091°57'0 0.1
2018-Jan-05 19:00N 46°46' W 091°57'0 0.0
2018-Jan-05 18:30N 46°46' W 091°57'0 0.0
2018-Jan-05 17:57N 46°46' W 091°57'0 0.0
2018-Jan-05 17:30N 46°46' W 091°57'0 0.0
2018-Jan-05 16:57N 46°46' W 091°57'0 0.0
2018-Jan-05 16:30N 46°46' W 091°57'0 0.0
2018-Jan-05 16:00N 46°46' W 091°57'4322.6
2018-Jan-05 16:00N 46°42' W 091°54'4 8.0 030 / 131034.1 2.2 -20.5
2018-Jan-05 15:27N 46°46' W 091°57'0 0.0
2018-Jan-05 15:00N 46°46' W 091°57'0 0.0
2018-Jan-05 14:30N 46°46' W 091°57'0 0.0
2018-Jan-05 14:00N 46°46' W 091°57'4316.0
2018-Jan-05 14:00N 46°42' W 091°54'4 8.8 030 / 121032.8 2.2 -22.2
2018-Jan-05 13:30N 46°46' W 091°57'4 8.4
2018-Jan-05 13:00N 46°42' W 091°54'4114.6 360 / 111032.8 1.1 -22.2
2018-Jan-05 12:57N 46°46' W 091°57'0 0.0
2018-Jan-05 12:30N 46°46' W 091°57'0 0.0
2018-Jan-05 12:00N 46°46' W 091°57'0 0.0
2018-Jan-05 11:30N 46°46' W 091°57'0 0.0
2018-Jan-05 11:00N 46°46' W 091°57'0 0.0
2018-Jan-05 10:30N 46°46' W 091°57'0 0.0
2018-Jan-05 09:57N 46°46' W 091°57'0 0.0
2018-Jan-05 09:27N 46°46' W 091°57'0 0.0
2018-Jan-05 08:57N 46°46' W 091°57'0 0.0
2018-Jan-05 08:30N 46°46' W 091°57'0 0.0
2018-Jan-05 07:57N 46°46' W 091°57'0 0.0
2018-Jan-05 07:27N 46°46' W 091°57'0 0.0
2018-Jan-05 06:57N 46°46' W 091°57'0 0.0
2018-Jan-05 06:27N 46°46' W 091°57'0 0.0
2018-Jan-05 06:00N 46°46' W 091°57'0 0.0
2018-Jan-05 05:27N 46°46' W 091°57'0 0.0
2018-Jan-05 05:00N 46°46' W 091°57'0 0.0
2018-Jan-05 04:30N 46°46' W 091°57'0 0.1
2018-Jan-05 03:57N 46°46' W 091°57'0 0.0
2018-Jan-05 03:30N 46°46' W 091°57'0 0.0
2018-Jan-05 03:00N 46°46' W 091°57'4339.6
2018-Jan-05 03:00N 46°42' W 091°54'4 8.7 350 / 181029.4 2.2 -17.7
2018-Jan-05 02:30N 46°46' W 091°57'0 0.0
2018-Jan-05 02:00N 46°46' W 091°57'0 0.1
2018-Jan-05 01:30N 46°46' W 091°57'0 0.0
2018-Jan-05 01:00N 46°46' W 091°57'0 0.1
2018-Jan-05 00:30N 46°46' W 091°57'0 0.2
2018-Jan-05 00:00N 46°46' W 091°57'4334.5
2018-Jan-05 00:00N 46°42' W 091°54'4 8.7 330 / 14 10.8 -16.1
2018-Jan-04 23:30N 46°46' W 091°57'0 0.2
2018-Jan-04 23:00N 46°46' W 091°57'0 0.1
2018-Jan-04 22:30N 46°46' W 091°57'0 0.0
2018-Jan-04 22:00N 46°46' W 091°57'3224.8
2018-Jan-04 22:00N 46°48' W 092°00'3 6.0 1028.127.0 -16.1
2018-Jan-04 21:30N 46°46' W 091°57'0 0.0
2018-Jan-04 20:48N 46°46' W 091°57'0 0.0
2018-Jan-04 20:21N 46°46' W 091°57'0 0.0
2018-Jan-04 19:51N 46°46' W 091°57'0 0.1
2018-Jan-04 19:27N 46°46' W 091°57'0 0.0
2018-Jan-04 18:54N 46°46' W 091°57'0 0.0
2018-Jan-04 18:24N 46°46' W 091°57'0 0.0
2018-Jan-04 17:39N 46°46' W 091°57'0 0.0
2018-Jan-04 17:24N 46°46' W 091°57'0 0.2
2018-Jan-04 16:57N 46°46' W 091°57'0 0.4
2018-Jan-04 16:24N 46°46' W 091°57'0 0.2
2018-Jan-04 15:57N 46°46' W 091°57'0 0.0
2018-Jan-04 15:27N 46°46' W 091°57'0 0.0
2018-Jan-04 15:01N 46°46' W 091°57'4255.1
2018-Jan-04 15:00N 46°42' W 091°54'4 8.9 1029.1 1.1 -19.9
2018-Jan-04 14:30N 46°46' W 091°57'0 0.0
2018-Jan-04 14:01N 46°46' W 091°57'0 0.1
2018-Jan-04 13:30N 46°46' W 091°57'0 0.1
2018-Jan-04 13:01N 46°46' W 091°57'0 0.0
2018-Jan-04 12:30N 46°46' W 091°57'0 0.0
2018-Jan-04 12:00N 46°46' W 091°57'0 0.0
2018-Jan-04 11:31N 46°46' W 091°57'0 0.0
2018-Jan-04 11:01N 46°46' W 091°57'3198.8
2018-Jan-04 11:00N 46°48' W 091°54'3 6.8 320 / 9 2.2 -20.5
2018-Jan-04 10:31N 46°46' W 091°57'0 0.1
2018-Jan-04 10:00N 46°46' W 091°57'0 0.0
2018-Jan-04 09:31N 46°46' W 091°57'0 0.0
2018-Jan-04 09:00N 46°46' W 091°57'0 0.0
2018-Jan-04 08:31N 46°46' W 091°57'0 0.1
2018-Jan-04 08:01N 46°46' W 091°57'0 0.1
2018-Jan-04 07:30N 46°46' W 091°57'0 0.0
2018-Jan-04 07:00N 46°46' W 091°57'0 0.0
2018-Jan-04 06:30N 46°46' W 091°57'0 0.1
2018-Jan-04 06:00N 46°46' W 091°57'0 0.1
2018-Jan-04 05:31N 46°46' W 091°57'0 0.0
2018-Jan-04 05:01N 46°46' W 091°57'0 0.1
2018-Jan-04 04:30N 46°46' W 091°57'0 0.0
2018-Jan-04 04:01N 46°46' W 091°57'0 0.0
2018-Jan-04 03:30N 46°46' W 091°57'0 0.0
2018-Jan-04 03:01N 46°46' W 091°57'4254.6
2018-Jan-04 03:00N 46°42' W 091°54'4 8.6 010 / 171026.7 5.4 -18.3
2018-Jan-04 02:30N 46°46' W 091°57'0 0.0
2018-Jan-04 02:00N 46°46' W 091°57'0 0.0
2018-Jan-04 01:30N 46°46' W 091°57'0 0.0
2018-Jan-04 01:00N 46°46' W 091°57'0 0.1
2018-Jan-04 00:30N 46°46' W 091°57'0 0.0
2018-Jan-04 00:00N 46°46' W 091°57'0 0.0
2018-Jan-03 23:30N 46°46' W 091°57'0 0.0
2018-Jan-03 23:00N 46°46' W 091°57'3227.7
2018-Jan-03 23:00N 46°48' W 092°00'3 6.4 320 / 181025.027.0 -16.1
2018-Jan-03 22:30N 46°46' W 091°57'0 0.0
2018-Jan-03 22:00N 46°46' W 091°57'0 0.0
2018-Jan-03 21:30N 46°46' W 091°57'0 0.1
2018-Jan-03 21:00N 46°46' W 091°57'0 0.1
2018-Jan-03 20:31N 46°46' W 091°57'0 0.0
2018-Jan-03 20:01N 46°46' W 091°57'0 0.0
2018-Jan-03 19:31N 46°46' W 091°57'0 0.0
2018-Jan-03 19:00N 46°46' W 091°57'0 0.0
2018-Jan-03 18:30N 46°46' W 091°57'0 0.0
2018-Jan-03 18:01N 46°46' W 091°57'0 0.1
2018-Jan-03 17:30N 46°46' W 091°57'0 0.1
2018-Jan-03 17:01N 46°46' W 091°57'0 0.1
2018-Jan-03 16:31N 46°46' W 091°57'0 0.1
2018-Jan-03 16:00N 46°46' W 091°57'0 0.0
2018-Jan-03 15:30N 46°46' W 091°57'0 0.0
2018-Jan-03 15:01N 46°46' W 091°57'0 0.0
2018-Jan-03 14:31N 46°46' W 091°57'0 0.0
2018-Jan-03 14:00N 46°46' W 091°57'0 0.0
2018-Jan-03 13:30N 46°46' W 091°57'0 0.0
2018-Jan-03 13:00N 46°46' W 091°57'4387.4
2018-Jan-03 13:00N 46°42' W 091°54'4 8.6 310 / 181021.3 2.2 -17.7 4.9
2018-Jan-03 12:30N 46°46' W 091°57'0 0.0
2018-Jan-03 12:00N 46°46' W 091°57'0 0.0
2018-Jan-03 11:30N 46°46' W 091°57'0 0.1
2018-Jan-03 11:00N 46°46' W 091°57'0 0.0
2018-Jan-03 10:30N 46°46' W 091°57'0 0.0
2018-Jan-03 10:01N 46°46' W 091°57'3186.0
2018-Jan-03 10:00N 46°48' W 092°00'3 6.4 340 / 161019.227.0 -16.6
2018-Jan-03 09:31N 46°46' W 091°57'0 0.0
2018-Jan-03 09:01N 46°46' W 091°57'0 0.0
2018-Jan-03 08:31N 46°46' W 091°57'0 0.0
2018-Jan-03 08:00N 46°46' W 091°57'0 0.0
2018-Jan-03 07:30N 46°46' W 091°57'0 0.0
2018-Jan-03 07:00N 46°46' W 091°57'0 0.0
2018-Jan-03 06:31N 46°46' W 091°57'0 0.0
2018-Jan-03 06:01N 46°46' W 091°57'0 0.0
2018-Jan-03 05:30N 46°46' W 091°57'0 0.1
2018-Jan-03 05:00N 46°46' W 091°57'0 0.1
2018-Jan-03 04:30N 46°46' W 091°57'0 0.0
2018-Jan-03 04:01N 46°46' W 091°57'0 0.0
2018-Jan-03 03:30N 46°46' W 091°57'0 0.1
2018-Jan-03 03:01N 46°46' W 091°57'0 0.0
2018-Jan-03 02:31N 46°46' W 091°57'0 0.1
2018-Jan-03 02:00N 46°46' W 091°57'4387.5
2018-Jan-03 02:00N 46°42' W 091°54'4 8.7 280 / 211012.5 2.2 -11.6 4.9
2018-Jan-03 01:30N 46°46' W 091°57'0 0.0
2018-Jan-03 01:01N 46°46' W 091°57'0 0.2
2018-Jan-03 00:30N 46°46' W 091°57'0 0.1
2018-Jan-03 00:01N 46°46' W 091°57'0 0.0
2018-Jan-02 23:30N 46°46' W 091°57'0 0.0
2018-Jan-02 23:00N 46°46' W 091°57'0 0.1
2018-Jan-02 22:30N 46°46' W 091°57'0 0.0
2018-Jan-02 22:00N 46°46' W 091°57'0 0.0
2018-Jan-02 21:30N 46°46' W 091°57'0 0.1
2018-Jan-02 21:00N 46°46' W 091°57'0 0.0
2018-Jan-02 20:29N 46°46' W 091°57'0 0.1
2018-Jan-02 20:00N 46°46' W 091°57'0 0.0
2018-Jan-02 19:30N 46°46' W 091°57'0 0.0
2018-Jan-02 19:00N 46°46' W 091°57'0 0.0
2018-Jan-02 18:30N 46°46' W 091°57'0 0.0
2018-Jan-02 18:00N 46°46' W 091°57'0 0.1
2018-Jan-02 17:31N 46°46' W 091°57'0 0.0
2018-Jan-02 17:00N 46°46' W 091°57'0 0.0
2018-Jan-02 16:31N 46°46' W 091°57'0 0.0
2018-Jan-02 16:01N 46°46' W 091°57'4262.5
2018-Jan-02 16:00N 46°42' W 091°54'4 9.1 240 / 251019.2 1.1 -17.7 3.8
2018-Jan-02 15:30N 46°46' W 091°57'0 0.0
2018-Jan-02 15:00N 46°46' W 091°57'4308.2
2018-Jan-02 15:00N 46°42' W 091°54'4 9.0 230 / 221021.6 1.1 -18.8 3.8
2018-Jan-02 14:31N 46°46' W 091°57'0 0.0
2018-Jan-02 14:01N 46°46' W 091°57'  
Track history (hours):
 
Tides and Currents Weather Stations Pressure Air Temp Water Temp Dewpoint Dewpoint Depression Visibility Wind Speed Wind Dir Waves Ship Positions

Presque Isle

Owner: Great Lakes Fleet, Inc., Homewood, IL. More information available from US FCC via Universal Licensing System and Coast Guard Vessel Documentation Center.

Last reported at 2018-Jan-12 14:00 UTC. Time now 2018-Feb-23 15:57 UTC.
Position N 43°18' W 083°06'.
Warning: this ship's position is 42 days out of date.

Length 305 m; draft 6.9 m.

Type: Cargo ship. MMSI: 367057570.

Wind from 340 at 24 knots

Barometer 1008.4 mb
Air temperature -0.0 ° C
Visibility: greater than 1.1 NM

Date/timePositionNaut miles runAvg speedWind from/ knotsBaromVisibWave heightAir tempDewpointWater temp
2018-Jan-12 14:00N 43°18' W 083°06'66 6.0 340 / 241008.4 1.1 -0.0
2018-Jan-12 03:00N 42°12' W 083°06'73 6.1 180 / 241006.4 0.0 7.2
2018-Jan-11 15:00N 43°18' W 082°24'0 0.0 180 / 261010.8 5.4 4.4
2018-Jan-11 12:00N 43°18' W 082°24'0 0.0 170 / 221011.510.8 3.8
2018-Jan-11 10:00N 43°18' W 082°24'24 3.4 170 / 201011.510.8 3.3
2018-Jan-11 03:00N 43°42' W 082°24'24 8.0 180 / 241010.8 0.5 3.3
2018-Jan-11 00:00N 43°18' W 082°24'0 0.0 190 / 221009.1 0.1 2.2
2018-Jan-10 15:00N 43°18' W 082°24'73 9.1 160 / 171018.6 2.2 -1.6
2018-Jan-10 07:00N 44°30' W 082°42'25 8.5 190 / 231022.610.8 -1.1
2018-Jan-10 04:00N 44°54' W 082°54'208 9.9 1023.7 2.2 -1.6
2018-Jan-09 07:00N 47°18' W 086°30'5213.0 320 / 201016.510.8 -3.8
2018-Jan-09 03:00N 47°36' W 087°42'5313.2 310 / 271013.8 5.4 -5.5
2018-Jan-08 23:00N 47°30' W 089°00'3115.4 300 / 241011.8 -3.3
2018-Jan-08 21:00N 47°18' W 089°42'8 8.1 310 / 251009.827.0 -1.6
2018-Jan-08 20:00N 47°18' W 089°54'5811.7 300 / 261008.810.8 -1.6
2018-Jan-08 15:00N 47°06' W 091°18'1621.4 270 / 241008.1 5.4 -1.6
2018-Jan-08 14:15N 47°00' W 091°40'1 2.8
2018-Jan-08 14:00N 47°01' W 091°40'0 0.1
2018-Jan-08 11:46N 47°01' W 091°40'0 0.0
2018-Jan-08 11:04N 47°01' W 091°40'0 0.1
2018-Jan-08 11:00N 47°01' W 091°40'0 0.0
2018-Jan-08 10:30N 47°01' W 091°40'0 0.0
2018-Jan-08 10:00N 47°01' W 091°40'0 0.0
2018-Jan-08 09:30N 47°01' W 091°40'0 0.0
2018-Jan-08 09:00N 47°01' W 091°40'0 0.0
2018-Jan-08 08:30N 47°01' W 091°40'0 0.0
2018-Jan-08 08:00N 47°01' W 091°40'0 0.0
2018-Jan-08 07:29N 47°01' W 091°40'0 0.0
2018-Jan-08 07:00N 47°01' W 091°40'0 0.0
2018-Jan-08 01:32N 47°01' W 091°40'0 0.0
2018-Jan-08 01:18N 47°01' W 091°40'0 0.6
2018-Jan-08 01:00N 47°01' W 091°40'3 6.1
2018-Jan-08 00:26N 46°58' W 091°43'512.8
2018-Jan-08 00:00N 46°53' W 091°47'165.7
2018-Jan-08 00:00N 46°54' W 091°48'713.9 240 / 181006.4 5.4 -2.2
2018-Jan-07 23:30N 46°48' W 091°53'3 5.4
2018-Jan-07 23:00N 46°46' W 091°56'0 0.1
2018-Jan-07 22:30N 46°46' W 091°56'0 0.0
2018-Jan-07 22:00N 46°46' W 091°56'0 0.0
2018-Jan-07 21:30N 46°46' W 091°56'0 0.0
2018-Jan-07 21:00N 46°46' W 091°56'0 0.1
2018-Jan-07 20:30N 46°46' W 091°56'0 0.0
2018-Jan-07 20:00N 46°46' W 091°56'0 0.0
2018-Jan-07 19:30N 46°46' W 091°56'0 0.0
2018-Jan-07 19:00N 46°46' W 091°56'0 0.1
2018-Jan-07 18:30N 46°46' W 091°56'0 0.0
2018-Jan-07 18:00N 46°46' W 091°56'0 0.0
2018-Jan-07 17:30N 46°46' W 091°56'0 0.0
2018-Jan-07 17:00N 46°46' W 091°56'0 0.1
2018-Jan-07 16:30N 46°46' W 091°56'0 0.0
2018-Jan-07 16:00N 46°46' W 091°56'0 0.0
2018-Jan-07 15:30N 46°46' W 091°56'0 0.0
2018-Jan-07 15:00N 46°46' W 091°56'0 0.0
2018-Jan-07 14:30N 46°46' W 091°56'0 0.0
2018-Jan-07 14:00N 46°46' W 091°56'0 0.0
2018-Jan-07 13:30N 46°46' W 091°56'0 0.0
2018-Jan-07 13:00N 46°46' W 091°56'0 0.0
2018-Jan-07 12:29N 46°46' W 091°56'0 0.0
2018-Jan-07 12:00N 46°46' W 091°56'0 0.0
2018-Jan-07 11:30N 46°46' W 091°56'0 0.0
2018-Jan-07 11:00N 46°46' W 091°56'0 0.0
2018-Jan-07 10:30N 46°46' W 091°56'0 0.0
2018-Jan-07 10:00N 46°46' W 091°56'2227.7
2018-Jan-07 10:00N 46°48' W 091°54'2 4.3 230 / 281008.827.0 -9.4
2018-Jan-07 09:30N 46°46' W 091°56'0 0.0
2018-Jan-07 09:00N 46°46' W 091°56'2157.0
2018-Jan-07 09:00N 46°48' W 091°54'2 4.3 230 / 311010.427.0 -9.4
2018-Jan-07 08:30N 46°46' W 091°56'0 0.0
2018-Jan-07 08:00N 46°46' W 091°56'0 0.0
2018-Jan-07 07:30N 46°46' W 091°56'0 0.0
2018-Jan-07 07:00N 46°46' W 091°56'0 0.0
2018-Jan-07 06:30N 46°46' W 091°56'0 0.0
2018-Jan-07 06:00N 46°46' W 091°56'0 0.0
2018-Jan-07 05:30N 46°46' W 091°56'0 0.1
2018-Jan-07 05:00N 46°46' W 091°56'1 1.9
2018-Jan-07 04:30N 46°47' W 091°55'4 8.7
2018-Jan-07 04:00N 46°48' W 091°48'3 6.2
2018-Jan-07 03:30N 46°49' W 091°44'4 7.4
2018-Jan-07 03:00N 46°50' W 091°39'5 8.4
2018-Jan-07 02:23N 46°51' W 091°32'16 6.8
2018-Jan-07 00:00N 47°00' W 091°12'2010.1 190 / 161022.010.8 -10.5
2018-Jan-06 22:00N 47°12' W 090°48'34 5.6 180 / 151025.310.8 -12.2
2018-Jan-06 16:00N 46°54' W 091°30'416.6 210 / 121032.1 1.1 -16.6
2018-Jan-06 15:46N 46°52' W 091°35'310.5
2018-Jan-06 15:30N 46°51' W 091°38'5 9.9
2018-Jan-06 15:00N 46°48' W 091°44'4 8.9
2018-Jan-06 14:30N 46°47' W 091°51'4 8.0
2018-Jan-06 14:00N 46°47' W 091°56'1 0.9
2018-Jan-06 13:21N 46°46' W 091°56'0 0.1
2018-Jan-06 12:57N 46°46' W 091°56'0 0.1
2018-Jan-06 12:09N 46°46' W 091°56'528.7
2018-Jan-06 12:00N 46°42' W 091°54'553.7 230 / 71034.810.8 -21.6
2018-Jan-06 11:54N 46°46' W 091°56'0 0.0
2018-Jan-06 11:24N 46°46' W 091°56'511.3
2018-Jan-06 11:00N 46°42' W 091°54'5121.8 230 / 71034.810.8 -21.1
2018-Jan-06 10:57N 46°46' W 091°56'0 0.4
2018-Jan-06 10:30N 46°46' W 091°57'0 0.3
2018-Jan-06 09:57N 46°46' W 091°57'0 0.3
2018-Jan-06 09:27N 46°46' W 091°57'0 0.2
2018-Jan-06 08:57N 46°46' W 091°57'0 0.2
2018-Jan-06 08:27N 46°46' W 091°57'0 0.1
2018-Jan-06 07:57N 46°46' W 091°57'0 0.2
2018-Jan-06 07:27N 46°46' W 091°57'0 0.1
2018-Jan-06 07:00N 46°46' W 091°57'0 0.0
2018-Jan-06 06:30N 46°46' W 091°57'0 0.0
2018-Jan-06 06:00N 46°46' W 091°57'0 0.0
2018-Jan-06 05:27N 46°46' W 091°57'0 0.0
2018-Jan-06 04:57N 46°46' W 091°57'0 0.0
2018-Jan-06 04:27N 46°46' W 091°57'0 0.0
2018-Jan-06 04:00N 46°46' W 091°57'4334.4
2018-Jan-06 04:00N 46°42' W 091°54'4 7.8 320 / 10 2.2 -17.2-0.7
2018-Jan-06 03:27N 46°46' W 091°57'0 0.0
2018-Jan-06 03:00N 46°46' W 091°57'0 0.0
2018-Jan-06 02:27N 46°46' W 091°57'0 0.0
2018-Jan-06 02:00N 46°46' W 091°57'0 0.0
2018-Jan-06 01:30N 46°46' W 091°57'0 0.0
2018-Jan-06 01:00N 46°46' W 091°57'0 0.0
2018-Jan-06 00:30N 46°46' W 091°57'0 0.1
2018-Jan-05 23:54N 46°46' W 091°57'0 0.2
2018-Jan-05 23:30N 46°46' W 091°57'0 0.3
2018-Jan-05 23:00N 46°46' W 091°57'0 0.2
2018-Jan-05 22:27N 46°46' W 091°57'0 0.1
2018-Jan-05 21:51N 46°46' W 091°57'0 0.0
2018-Jan-05 21:27N 46°46' W 091°57'0 0.1
2018-Jan-05 20:57N 46°46' W 091°57'0 0.2
2018-Jan-05 20:27N 46°46' W 091°57'0 0.2
2018-Jan-05 19:57N 46°46' W 091°58'0 0.1
2018-Jan-05 19:27N 46°46' W 091°57'0 0.1
2018-Jan-05 19:00N 46°46' W 091°57'0 0.0
2018-Jan-05 18:30N 46°46' W 091°57'0 0.0
2018-Jan-05 17:57N 46°46' W 091°57'0 0.0
2018-Jan-05 17:30N 46°46' W 091°57'0 0.0
2018-Jan-05 16:57N 46°46' W 091°57'0 0.0
2018-Jan-05 16:30N 46°46' W 091°57'0 0.0
2018-Jan-05 16:00N 46°46' W 091°57'4322.6
2018-Jan-05 16:00N 46°42' W 091°54'4 8.0 030 / 131034.1 2.2 -20.5
2018-Jan-05 15:27N 46°46' W 091°57'0 0.0
2018-Jan-05 15:00N 46°46' W 091°57'0 0.0
2018-Jan-05 14:30N 46°46' W 091°57'0 0.0
2018-Jan-05 14:00N 46°46' W 091°57'4316.0
2018-Jan-05 14:00N 46°42' W 091°54'4 8.8 030 / 121032.8 2.2 -22.2
2018-Jan-05 13:30N 46°46' W 091°57'4 8.4
2018-Jan-05 13:00N 46°42' W 091°54'4114.6 360 / 111032.8 1.1 -22.2
2018-Jan-05 12:57N 46°46' W 091°57'0 0.0
2018-Jan-05 12:30N 46°46' W 091°57'0 0.0
2018-Jan-05 12:00N 46°46' W 091°57'0 0.0
2018-Jan-05 11:30N 46°46' W 091°57'0 0.0
2018-Jan-05 11:00N 46°46' W 091°57'0 0.0
2018-Jan-05 10:30N 46°46' W 091°57'0 0.0
2018-Jan-05 09:57N 46°46' W 091°57'0 0.0
2018-Jan-05 09:27N 46°46' W 091°57'0 0.0
2018-Jan-05 08:57N 46°46' W 091°57'0 0.0
2018-Jan-05 08:30N 46°46' W 091°57'0 0.0
2018-Jan-05 07:57N 46°46' W 091°57'0 0.0
2018-Jan-05 07:27N 46°46' W 091°57'0 0.0
2018-Jan-05 06:57N 46°46' W 091°57'0 0.0
2018-Jan-05 06:27N 46°46' W 091°57'0 0.0
2018-Jan-05 06:00N 46°46' W 091°57'0 0.0
2018-Jan-05 05:27N 46°46' W 091°57'0 0.0
2018-Jan-05 05:00N 46°46' W 091°57'0 0.0
2018-Jan-05 04:30N 46°46' W 091°57'0 0.1
2018-Jan-05 03:57N 46°46' W 091°57'0 0.0
2018-Jan-05 03:30N 46°46' W 091°57'0 0.0
2018-Jan-05 03:00N 46°46' W 091°57'4339.6
2018-Jan-05 03:00N 46°42' W 091°54'4 8.7 350 / 181029.4 2.2 -17.7
2018-Jan-05 02:30N 46°46' W 091°57'0 0.0
2018-Jan-05 02:00N 46°46' W 091°57'0 0.1
2018-Jan-05 01:30N 46°46' W 091°57'0 0.0
2018-Jan-05 01:00N 46°46' W 091°57'0 0.1
2018-Jan-05 00:30N 46°46' W 091°57'0 0.2
2018-Jan-05 00:00N 46°46' W 091°57'4334.5
2018-Jan-05 00:00N 46°42' W 091°54'4 8.7 330 / 14 10.8 -16.1
2018-Jan-04 23:30N 46°46' W 091°57'0 0.2
2018-Jan-04 23:00N 46°46' W 091°57'0 0.1
2018-Jan-04 22:30N 46°46' W 091°57'0 0.0
2018-Jan-04 22:00N 46°46' W 091°57'3224.8
2018-Jan-04 22:00N 46°48' W 092°00'3 6.0 1028.127.0 -16.1
2018-Jan-04 21:30N 46°46' W 091°57'0 0.0
2018-Jan-04 20:48N 46°46' W 091°57'0 0.0
2018-Jan-04 20:21N 46°46' W 091°57'0 0.0
2018-Jan-04 19:51N 46°46' W 091°57'0 0.1
2018-Jan-04 19:27N 46°46' W 091°57'0 0.0
2018-Jan-04 18:54N 46°46' W 091°57'0 0.0
2018-Jan-04 18:24N 46°46' W 091°57'0 0.0
2018-Jan-04 17:39N 46°46' W 091°57'0 0.0
2018-Jan-04 17:24N 46°46' W 091°57'0 0.2
2018-Jan-04 16:57N 46°46' W 091°57'0 0.4
2018-Jan-04 16:24N 46°46' W 091°57'0 0.2
2018-Jan-04 15:57N 46°46' W 091°57'0 0.0
2018-Jan-04 15:27N 46°46' W 091°57'0 0.0
2018-Jan-04 15:01N 46°46' W 091°57'4255.1
2018-Jan-04 15:00N 46°42' W 091°54'4 8.9 1029.1 1.1 -19.9
2018-Jan-04 14:30N 46°46' W 091°57'0 0.0
2018-Jan-04 14:01N 46°46' W 091°57'0 0.1
2018-Jan-04 13:30N 46°46' W 091°57'0 0.1
2018-Jan-04 13:01N 46°46' W 091°57'0 0.0
2018-Jan-04 12:30N 46°46' W 091°57'0 0.0
2018-Jan-04 12:00N 46°46' W 091°57'0 0.0
2018-Jan-04 11:31N 46°46' W 091°57'0 0.0
2018-Jan-04 11:01N 46°46' W 091°57'3198.8
2018-Jan-04 11:00N 46°48' W 091°54'3 6.8 320 / 9 2.2 -20.5
2018-Jan-04 10:31N 46°46' W 091°57'0 0.1
2018-Jan-04 10:00N 46°46' W 091°57'0 0.0
2018-Jan-04 09:31N 46°46' W 091°57'0 0.0
2018-Jan-04 09:00N 46°46' W 091°57'0 0.0
2018-Jan-04 08:31N 46°46' W 091°57'0 0.1
2018-Jan-04 08:01N 46°46' W 091°57'0 0.1
2018-Jan-04 07:30N 46°46' W 091°57'0 0.0
2018-Jan-04 07:00N 46°46' W 091°57'0 0.0
2018-Jan-04 06:30N 46°46' W 091°57'0 0.1
2018-Jan-04 06:00N 46°46' W 091°57'0 0.1
2018-Jan-04 05:31N 46°46' W 091°57'0 0.0
2018-Jan-04 05:01N 46°46' W 091°57'0 0.1
2018-Jan-04 04:30N 46°46' W 091°57'0 0.0
2018-Jan-04 04:01N 46°46' W 091°57'0 0.0
2018-Jan-04 03:30N 46°46' W 091°57'0 0.0
2018-Jan-04 03:01N 46°46' W 091°57'4254.6
2018-Jan-04 03:00N 46°42' W 091°54'4 8.6 010 / 171026.7 5.4 -18.3
2018-Jan-04 02:30N 46°46' W 091°57'0 0.0
2018-Jan-04 02:00N 46°46' W 091°57'0 0.0
2018-Jan-04 01:30N 46°46' W 091°57'0 0.0
2018-Jan-04 01:00N 46°46' W 091°57'0 0.1
2018-Jan-04 00:30N 46°46' W 091°57'0 0.0
2018-Jan-04 00:00N 46°46' W 091°57'0 0.0
2018-Jan-03 23:30N 46°46' W 091°57'0 0.0
2018-Jan-03 23:00N 46°46' W 091°57'3227.7
2018-Jan-03 23:00N 46°48' W 092°00'3 6.4 320 / 181025.027.0 -16.1
2018-Jan-03 22:30N 46°46' W 091°57'0 0.0
2018-Jan-03 22:00N 46°46' W 091°57'0 0.0
2018-Jan-03 21:30N 46°46' W 091°57'0 0.1
2018-Jan-03 21:00N 46°46' W 091°57'0 0.1
2018-Jan-03 20:31N 46°46' W 091°57'0 0.0
2018-Jan-03 20:01N 46°46' W 091°57'0 0.0
2018-Jan-03 19:31N 46°46' W 091°57'0 0.0
2018-Jan-03 19:00N 46°46' W 091°57'0 0.0
2018-Jan-03 18:30N 46°46' W 091°57'0 0.0
2018-Jan-03 18:01N 46°46' W 091°57'0 0.1
2018-Jan-03 17:30N 46°46' W 091°57'0 0.1
2018-Jan-03 17:01N 46°46' W 091°57'0 0.1
2018-Jan-03 16:31N 46°46' W 091°57'0 0.1
2018-Jan-03 16:00N 46°46' W 091°57'0 0.0
2018-Jan-03 15:30N 46°46' W 091°57'0 0.0
2018-Jan-03 15:01N 46°46' W 091°57'0 0.0
2018-Jan-03 14:31N 46°46' W 091°57'0 0.0
2018-Jan-03 14:00N 46°46' W 091°57'0 0.0
2018-Jan-03 13:30N 46°46' W 091°57'0 0.0
2018-Jan-03 13:00N 46°46' W 091°57'4387.4
2018-Jan-03 13:00N 46°42' W 091°54'4 8.6 310 / 181021.3 2.2 -17.7 4.9
2018-Jan-03 12:30N 46°46' W 091°57'0 0.0
2018-Jan-03 12:00N 46°46' W 091°57'0 0.0
2018-Jan-03 11:30N 46°46' W 091°57'0 0.1
2018-Jan-03 11:00N 46°46' W 091°57'0 0.0
2018-Jan-03 10:30N 46°46' W 091°57'0 0.0
2018-Jan-03 10:01N 46°46' W 091°57'3186.0
2018-Jan-03 10:00N 46°48' W 092°00'3 6.4 340 / 161019.227.0 -16.6
2018-Jan-03 09:31N 46°46' W 091°57'0 0.0
2018-Jan-03 09:01N 46°46' W 091°57'0 0.0
2018-Jan-03 08:31N 46°46' W 091°57'0 0.0
2018-Jan-03 08:00N 46°46' W 091°57'0 0.0
2018-Jan-03 07:30N 46°46' W 091°57'0 0.0
2018-Jan-03 07:00N 46°46' W 091°57'0 0.0
2018-Jan-03 06:31N 46°46' W 091°57'0 0.0
2018-Jan-03 06:01N 46°46' W 091°57'0 0.0
2018-Jan-03 05:30N 46°46' W 091°57'0 0.1
2018-Jan-03 05:00N 46°46' W 091°57'0 0.1
2018-Jan-03 04:30N 46°46' W 091°57'0 0.0
2018-Jan-03 04:01N 46°46' W 091°57'0 0.0
2018-Jan-03 03:30N 46°46' W 091°57'0 0.1
2018-Jan-03 03:01N 46°46' W 091°57'0 0.0
2018-Jan-03 02:31N 46°46' W 091°57'0 0.1
2018-Jan-03 02:00N 46°46' W 091°57'4387.5
2018-Jan-03 02:00N 46°42' W 091°54'4 8.7 280 / 211012.5 2.2 -11.6 4.9
2018-Jan-03 01:30N 46°46' W 091°57'0 0.0
2018-Jan-03 01:01N 46°46' W 091°57'0 0.2
2018-Jan-03 00:30N 46°46' W 091°57'0 0.1
2018-Jan-03 00:01N 46°46' W 091°57'0 0.0
2018-Jan-02 23:30N 46°46' W 091°57'0 0.0
2018-Jan-02 23:00N 46°46' W 091°57'0 0.1
2018-Jan-02 22:30N 46°46' W 091°57'0 0.0
2018-Jan-02 22:00N 46°46' W 091°57'0 0.0
2018-Jan-02 21:30N 46°46' W 091°57'0 0.1
2018-Jan-02 21:00N 46°46' W 091°57'0 0.0
2018-Jan-02 20:29N 46°46' W 091°57'0 0.1
2018-Jan-02 20:00N 46°46' W 091°57'0 0.0
2018-Jan-02 19:30N 46°46' W 091°57'0 0.0
2018-Jan-02 19:00N 46°46' W 091°57'0 0.0
2018-Jan-02 18:30N 46°46' W 091°57'0 0.0
2018-Jan-02 18:00N 46°46' W 091°57'0 0.1
2018-Jan-02 17:31N 46°46' W 091°57'0 0.0
2018-Jan-02 17:00N 46°46' W 091°57'0 0.0
2018-Jan-02 16:31N 46°46' W 091°57'0 0.0
2018-Jan-02 16:01N 46°46' W 091°57'4262.5
2018-Jan-02 16:00N 46°42' W 091°54'4 9.1 240 / 251019.2 1.1 -17.7 3.8
2018-Jan-02 15:30N 46°46' W 091°57'0 0.0
2018-Jan-02 15:00N 46°46' W 091°57'4308.2
2018-Jan-02 15:00N 46°42' W 091°54'4 9.0 230 / 221021.6 1.1 -18.8 3.8
2018-Jan-02 14:31N 46°46' W 091°57'0 0.0
2018-Jan-02 14:01N 46°46' W 091°57'  

Dump ship's entire track history